This is the latest recevied weather packets stored in our database for station/object YN7ZFC-13. If no packets are shown the sender has not sent any weather packets the latest 1 day(s).
| Time | Temp. | Humidity | Pressure | Rain* | Wind** | Luminosity | Snow |
|---|---|---|---|---|---|---|---|
| 1778078744 | 29.44° C | 58% | 1013 hPa | 0 mm | - | - | - |
| 1778074542 | 27.78° C | 72% | 1012 hPa | 0 mm | - | - | - |
| 1778072140 | 25.56° C | 74% | 1013 hPa | 0 mm | - | - | - |
| 1778069739 | 26.11° C | 72% | 1012 hPa | 0 mm | - | - | - |
| 1778068538 | 26.11° C | 72% | 1012 hPa | 0 mm | - | - | - |
| 1778067938 | 26.11° C | 72% | 1012 hPa | 0 mm | - | - | - |
| 1778066737 | 26.11° C | 72% | 1011 hPa | 0 mm | - | - | - |
| 1778065536 | 26.11° C | 72% | 1012 hPa | 0 mm | - | - | - |
| 1778064936 | 26.11° C | 72% | 1012 hPa | 0 mm | - | - | - |
| 1778063135 | 26.11° C | 72% | 1011 hPa | 0 mm | - | - | - |
| 1778061934 | 26.11° C | 72% | 1011 hPa | 0 mm | - | - | - |
| 1778060733 | 26.11° C | 72% | 1011 hPa | 0 mm | - | - | - |
| 1778060133 | 26.11° C | 71% | 1011 hPa | 0 mm | - | - | - |
| 1778059533 | 26.11° C | 71% | 1011 hPa | 0 mm | - | - | - |
| 1778057732 | 26.67° C | 71% | 1011 hPa | 0 mm | - | - | - |
| 1778057132 | 24.44° C | 71% | 1011 hPa | 0 mm | - | - | - |
| 1778055331 | 24.44° C | 71% | 1011 hPa | 0 mm | - | - | - |
| 1778054130 | 24.44° C | 71% | 1011 hPa | 0 mm | - | - | - |
| 1778051729 | 25.56° C | 71% | 1012 hPa | 0 mm | - | - | - |
| 1778050528 | 26.11° C | 71% | 1012 hPa | 0 mm | - | - | - |
| 1778049928 | 26.11° C | 71% | 1012 hPa | 0 mm | - | - | - |
| 1778049328 | 26.11° C | 71% | 1012 hPa | 0 mm | - | - | - |
| 1778047527 | 23.89° C | 71% | 1012 hPa | 0 mm | - | - | - |
| 1778045126 | 28.33° C | 66% | 1012 hPa | 0 mm | - | - | - |
| 1778044526 | 28.89° C | 66% | 1012 hPa | 0 mm | - | - | - |
* Rain latest hour (hover to see other rain measurements)
** Current wind speed in m/s (hover to see current wind gust speed)